Time;durP1;ratioP1;P1;durP2;ratioP2;P2;SDS_P1;SDS_P2;PMS_P1;PMS_P2;Temp;Humidity;BMP_temperature;BMP_pressure;BME280_temperature;BME280_humidity;BME280_pressure;Samples;Min_cycle;Max_cycle;Signal;HPM_P1;HPM_P2
2022/03/10 00:00:06;;;;;;;30.80;17.90;;;0.30;41.60;;;;;;4979583;28;20459;-82
2022/03/10 00:05:18;;;;;;;29.25;18.17;;;0.30;43.10;;;;;;4974327;28;20199;-81
2022/03/10 00:07:46;;;;;;;30.10;18.75;;;0.30;44.10;;;;;;4980907;28;20228;-80
2022/03/10 00:10:13;;;;;;;25.98;17.45;;;0.10;44.90;;;;;;4980121;28;20568;-82
2022/03/10 00:12:47;;;;;;;25.70;17.25;;;0.00;45.20;;;;;;4980304;28;20206;-81
2022/03/10 00:15:15;;;;;;;33.63;18.60;;;-0.10;47.70;;;;;;4980644;28;20214;-82
2022/03/10 00:17:41;;;;;;;31.85;19.40;;;-0.30;48.00;;;;;;4981179;28;20216;-82
2022/03/10 00:20:09;;;;;;;27.50;18.00;;;-0.30;49.90;;;;;;4980216;28;20278;-82
2022/03/10 00:22:51;;;;;;;28.95;17.38;;;-0.30;49.80;;;;;;4982476;28;20210;-81
2022/03/10 00:25:18;;;;;;;30.65;18.00;;;-0.20;45.50;;;;;;4980252;28;20188;-82
2022/03/10 00:27:45;;;;;;;35.33;18.98;;;-0.20;46.10;;;;;;4980329;28;20248;-82
2022/03/10 00:30:12;;;;;;;31.33;20.30;;;-0.40;49.00;;;;;;4979970;28;20556;-82
2022/03/10 00:32:44;;;;;;;33.03;18.73;;;-0.50;49.40;;;;;;4979860;28;20195;-82
2022/03/10 00:35:11;;;;;;;31.90;17.23;;;-0.50;50.90;;;;;;4980274;28;20212;-83
2022/03/10 00:37:38;;;;;;;27.52;19.42;;;-0.70;51.30;;;;;;4979945;28;20200;-82
2022/03/10 00:40:07;;;;;;;31.58;18.65;;;-0.80;52.60;;;;;;4979172;28;20188;-83
2022/03/10 00:42:38;;;;;;;32.08;18.85;;;-0.70;55.10;;;;;;4980089;28;20227;-81
2022/03/10 00:45:07;;;;;;;34.67;19.77;;;-0.70;54.60;;;;;;4982088;28;20188;-82
2022/03/10 00:47:34;;;;;;;39.00;21.27;;;-0.60;56.10;;;;;;4979943;28;20188;-82
2022/03/10 00:50:02;;;;;;;30.58;18.92;;;-0.70;56.40;;;;;;4979135;28;20199;-81
2022/03/10 00:52:31;;;;;;;39.33;20.85;;;-0.70;57.50;;;;;;4979390;28;20199;-82
2022/03/10 00:54:58;;;;;;;33.88;20.67;;;-0.80;58.90;;;;;;4979406;28;20219;-81
2022/03/10 00:57:26;;;;;;;32.85;19.30;;;-0.80;58.40;;;;;;4979409;28;20597;-82
2022/03/10 00:59:52;;;;;;;36.40;20.70;;;-1.00;59.40;;;;;;4978864;28;20208;-83
2022/03/10 01:02:19;;;;;;;35.15;18.65;;;-0.90;60.80;;;;;;4979586;28;20202;-82
2022/03/10 01:04:46;;;;;;;28.08;18.75;;;-1.00;58.90;;;;;;4979857;28;20211;-83
2022/03/10 01:07:13;;;;;;;30.65;18.67;;;-1.00;57.40;;;;;;4980766;28;20221;-82
2022/03/10 01:09:40;;;;;;;42.95;21.23;;;-1.00;57.30;;;;;;4978691;28;20211;-82
2022/03/10 01:12:07;;;;;;;32.80;17.13;;;-1.00;59.20;;;;;;4979503;28;20206;-83
2022/03/10 01:14:35;;;;;;;30.38;19.50;;;-0.90;57.60;;;;;;4979774;28;20204;-81
2022/03/10 01:17:02;;;;;;;32.45;19.02;;;-0.90;56.60;;;;;;4979369;28;20211;-84
2022/03/10 01:19:29;;;;;;;30.67;18.85;;;-0.90;56.90;;;;;;4978572;28;20215;-82
2022/03/10 01:21:56;;;;;;;32.58;18.80;;;-0.80;56.80;;;;;;4979988;28;20204;-82
2022/03/10 01:24:23;;;;;;;31.42;18.02;;;-0.70;56.80;;;;;;4980598;28;20226;-82
2022/03/10 01:26:50;;;;;;;33.55;18.50;;;-0.70;55.80;;;;;;4981359;28;20200;-80
2022/03/10 01:29:17;;;;;;;32.70;18.67;;;-0.50;54.40;;;;;;4980391;28;20216;-82
2022/03/10 01:31:45;;;;;;;28.77;16.27;;;-0.20;52.10;;;;;;4980388;28;20231;-82
2022/03/10 01:34:12;;;;;;;32.63;18.55;;;-0.20;50.70;;;;;;4980512;28;20208;-81
2022/03/10 01:36:38;;;;;;;30.75;16.88;;;-0.10;50.30;;;;;;4980257;28;20218;-82
2022/03/10 01:39:05;;;;;;;29.58;18.25;;;0.00;48.90;;;;;;4979832;28;20226;-81
2022/03/10 01:41:33;;;;;;;27.20;16.92;;;0.00;48.70;;;;;;4979912;28;20214;-83
2022/03/10 01:44:01;;;;;;;28.98;17.35;;;0.00;47.40;;;;;;4979856;28;20254;-82
2022/03/10 01:46:28;;;;;;;32.40;16.48;;;0.10;47.10;;;;;;4981723;28;20195;-81
2022/03/10 01:48:56;;;;;;;29.35;18.42;;;0.30;46.60;;;;;;4979546;28;20215;-82
2022/03/10 01:51:24;;;;;;;30.08;16.77;;;0.20;46.60;;;;;;4980184;28;20203;-82
2022/03/10 01:53:52;;;;;;;30.45;15.80;;;0.20;45.60;;;;;;4979999;28;20205;-82
2022/03/10 01:56:19;;;;;;;35.47;22.80;;;0.30;43.20;;;;;;4980432;28;20211;-81
2022/03/10 01:58:47;;;;;;;24.00;16.23;;;0.50;39.60;;;;;;5007466;23;20223;-82
2022/03/10 02:01:14;;;;;;;27.42;14.77;;;0.70;36.80;;;;;;4992782;28;20195;-82
2022/03/10 02:03:41;;;;;;;26.17;15.75;;;0.90;33.70;;;;;;4992529;28;20198;-83
2022/03/10 02:06:09;;;;;;;22.10;12.95;;;1.10;32.30;;;;;;4992722;28;20198;-83
2022/03/10 02:11:20;;;;;;;23.77;16.00;;;1.10;33.10;;;;;;5012483;28;20570;-82
2022/03/10 02:13:47;;;;;;;23.20;14.77;;;1.20;33.90;;;;;;5011801;28;20449;-81
2022/03/10 02:19:01;;;;;;;29.20;17.17;;;0.80;37.90;;;;;;5011759;28;20468;-82
2022/03/10 02:21:29;;;;;;;28.13;17.55;;;0.70;42.50;;;;;;5012841;28;20464;-82
2022/03/10 02:23:57;;;;;;;30.55;18.25;;;0.50;44.00;;;;;;5015901;28;20586;-83
2022/03/10 02:26:24;;;;;;;30.90;17.60;;;0.30;45.10;;;;;;5016622;28;20213;-83
2022/03/10 02:28:51;;;;;;;24.65;16.17;;;0.20;45.80;;;;;;5015432;28;20210;-82
2022/03/10 02:31:18;;;;;;;39.28;17.42;;;0.00;45.70;;;;;;5016059;28;20198;-82
2022/03/10 02:33:44;;;;;;;26.73;15.35;;;0.00;45.70;;;;;;5016102;28;20202;-82
2022/03/10 02:36:11;;;;;;;28.35;15.45;;;0.00;44.60;;;;;;5016206;28;20222;-82
2022/03/10 02:38:38;;;;;;;26.13;14.32;;;0.30;40.80;;;;;;5015175;28;20613;-82
2022/03/10 02:41:06;;;;;;;22.80;14.85;;;0.60;36.70;;;;;;5015932;28;20202;-83
2022/03/10 02:43:32;;;;;;;22.75;15.45;;;0.80;35.00;;;;;;5015804;28;20191;-83
2022/03/10 02:45:59;;;;;;;29.42;15.43;;;0.90;34.30;;;;;;5016040;28;20195;-82
2022/03/10 02:48:26;;;;;;;26.17;15.90;;;1.10;32.70;;;;;;5015459;28;20214;-83
2022/03/10 02:50:52;;;;;;;23.98;14.93;;;1.40;31.80;;;;;;5015997;28;20459;-82
2022/03/10 02:53:19;;;;;;;25.57;14.80;;;1.40;31.60;;;;;;5015827;28;20199;-82
2022/03/10 02:55:46;;;;;;;26.30;13.68;;;1.40;31.60;;;;;;5015611;28;20483;-82
2022/03/10 02:58:14;;;;;;;29.10;14.90;;;1.40;31.40;;;;;;5015077;28;20769;-83
2022/03/10 03:00:41;;;;;;;24.00;15.25;;;1.40;32.30;;;;;;5015402;28;20457;-83
2022/03/10 03:03:08;;;;;;;25.55;14.85;;;1.30;32.70;;;;;;5015652;28;20204;-83
2022/03/10 03:05:35;;;;;;;27.10;16.80;;;1.30;33.40;;;;;;5015357;28;20186;-82
2022/03/10 03:08:02;;;;;;;28.90;14.60;;;1.20;33.60;;;;;;5015638;28;20477;-83
2022/03/10 03:10:29;;;;;;;26.95;15.13;;;1.20;33.70;;;;;;5015029;28;20602;-83
2022/03/10 03:12:55;;;;;;;32.33;15.25;;;1.10;33.50;;;;;;5014683;28;20194;-82
2022/03/10 03:15:23;;;;;;;27.80;15.27;;;1.20;32.70;;;;;;5015269;28;20225;-82
2022/03/10 03:17:50;;;;;;;20.13;12.68;;;1.10;32.90;;;;;;5015338;28;20469;-83
2022/03/10 03:20:17;;;;;;;27.20;16.75;;;1.10;32.10;;;;;;5015249;28;20202;-83
2022/03/10 03:22:45;;;;;;;22.77;15.02;;;1.20;32.40;;;;;;5015111;28;20206;-83
2022/03/10 03:25:14;;;;;;;26.42;16.30;;;1.10;31.90;;;;;;5014924;28;20202;-83
2022/03/10 03:27:41;;;;;;;26.53;15.07;;;1.10;32.10;;;;;;5014605;28;20206;-82
2022/03/10 03:30:09;;;;;;;27.80;15.02;;;1.10;32.00;;;;;;5014418;28;20481;-83
2022/03/10 03:32:37;;;;;;;30.23;15.97;;;1.10;31.60;;;;;;5014350;28;20194;-83
2022/03/10 03:35:04;;;;;;;31.20;15.82;;;1.10;31.40;;;;;;5014312;28;20453;-83
2022/03/10 03:37:31;;;;;;;21.67;15.23;;;1.10;31.90;;;;;;5014367;28;20190;-83
2022/03/10 03:40:00;;;;;;;33.10;16.60;;;1.00;32.80;;;;;;5013935;28;20596;-84
2022/03/10 03:42:32;;;;;;;26.20;15.13;;;1.00;34.70;;;;;;5015538;28;20483;-83
2022/03/10 03:44:59;;;;;;;28.00;17.02;;;0.90;37.00;;;;;;5014213;28;20671;-83
2022/03/10 03:47:26;;;;;;;27.70;16.23;;;0.80;38.40;;;;;;5014213;28;20194;-82
2022/03/10 03:49:54;;;;;;;30.52;17.33;;;0.50;40.10;;;;;;5014098;28;20221;-83
2022/03/10 03:52:20;;;;;;;26.38;15.18;;;0.40;42.30;;;;;;5014042;28;20199;-82
2022/03/10 03:54:47;;;;;;;28.35;17.92;;;0.30;43.90;;;;;;5014409;28;20207;-81
2022/03/10 03:57:14;;;;;;;29.60;18.27;;;0.00;45.50;;;;;;5014123;28;20225;-82
2022/03/10 03:59:41;;;;;;;27.15;17.20;;;-0.20;47.60;;;;;;5013512;28;20233;-82
2022/03/10 04:02:08;;;;;;;32.28;17.70;;;-0.40;49.00;;;;;;5013872;28;20582;-82
2022/03/10 04:04:35;;;;;;;30.95;19.35;;;-0.50;50.50;;;;;;5013675;28;20610;-82
2022/03/10 04:07:04;;;;;;;41.75;25.83;;;-0.50;52.70;;;;;;5014741;28;20195;-85
2022/03/10 04:09:30;;;;;;;39.17;20.00;;;-0.60;52.80;;;;;;5012554;28;20241;-79
2022/03/10 04:11:57;;;;;;;31.85;19.38;;;-0.70;52.70;;;;;;5012637;28;20282;-82
2022/03/10 04:14:24;;;;;;;37.35;21.65;;;-0.70;54.50;;;;;;5013351;28;20600;-83
2022/03/10 04:16:51;;;;;;;33.92;19.33;;;-0.70;55.70;;;;;;5011618;28;20214;-82
2022/03/10 04:19:17;;;;;;;32.10;20.35;;;-0.90;55.10;;;;;;5013124;28;20221;-82
2022/03/10 04:21:44;;;;;;;31.33;19.05;;;-0.80;55.80;;;;;;5012332;28;20213;-82
2022/03/10 04:24:12;;;;;;;33.28;18.05;;;-0.90;55.70;;;;;;5012850;28;20252;-82
2022/03/10 04:26:40;;;;;;;28.45;19.25;;;-0.90;54.90;;;;;;5013384;28;20195;-82
2022/03/10 04:29:06;;;;;;;33.75;21.02;;;-0.90;54.50;;;;;;5011643;28;20214;-83
2022/03/10 04:31:33;;;;;;;35.05;19.38;;;-0.90;54.30;;;;;;5013828;28;20201;-83
2022/03/10 04:34:00;;;;;;;33.03;18.00;;;-0.80;54.40;;;;;;5013372;28;20217;-81
2022/03/10 04:36:26;;;;;;;29.10;18.83;;;-0.80;52.60;;;;;;5012315;28;20225;-82
2022/03/10 04:38:53;;;;;;;27.95;17.67;;;-0.70;52.70;;;;;;5013239;28;20221;-82
2022/03/10 04:41:21;;;;;;;29.42;17.23;;;-0.60;51.80;;;;;;5012320;28;20209;-83
2022/03/10 04:43:48;;;;;;;27.52;18.13;;;-0.60;52.00;;;;;;5013147;28;20194;-83
2022/03/10 04:46:15;;;;;;;35.38;19.60;;;-0.50;52.80;;;;;;5012759;28;20191;-83
2022/03/10 04:48:42;;;;;;;31.55;21.30;;;-0.50;52.90;;;;;;5011520;28;20218;-85
2022/03/10 04:51:09;;;;;;;30.35;19.75;;;-0.50;52.90;;;;;;5013829;28;20252;-82
2022/03/10 04:53:36;;;;;;;33.45;18.55;;;-0.60;52.80;;;;;;5012740;28;20202;-84
2022/03/10 04:56:03;;;;;;;34.10;20.50;;;-0.60;54.10;;;;;;5011945;28;20210;-84
2022/03/10 04:58:31;;;;;;;36.20;20.15;;;-0.70;54.60;;;;;;5021353;28;20221;-82
2022/03/10 05:01:13;;;;;;;32.03;21.73;;;-0.80;55.50;;;;;;5015269;28;20194;-83
2022/03/10 05:03:44;;;;;;;35.33;19.75;;;-0.80;55.50;;;;;;5017667;28;20206;-87
2022/03/10 05:06:15;;;;;;;30.65;20.05;;;-0.70;55.00;;;;;;5017476;28;20186;-84
2022/03/10 05:09:07;;;;;;;30.67;18.75;;;-0.70;54.10;;;;;;5014900;28;20237;-84
2022/03/10 05:11:34;;;;;;;32.42;20.00;;;-0.70;53.80;;;;;;5013986;28;20273;-83
2022/03/10 05:14:02;;;;;;;31.50;19.27;;;-0.70;54.10;;;;;;5012648;28;20659;-83
2022/03/10 05:16:29;;;;;;;29.05;18.15;;;-0.60;53.20;;;;;;5013058;28;20210;-82
2022/03/10 05:18:55;;;;;;;38.05;21.45;;;-0.50;53.60;;;;;;5012834;28;20213;-82
2022/03/10 05:21:22;;;;;;;36.08;19.75;;;-0.60;53.90;;;;;;5012351;28;20217;-82
2022/03/10 05:23:52;;;;;;;30.67;18.95;;;-0.60;54.50;;;;;;5013715;28;20210;-82
2022/03/10 05:26:18;;;;;;;48.00;29.05;;;-0.60;55.40;;;;;;5012372;28;20195;-83
2022/03/10 05:28:45;;;;;;;31.73;20.63;;;-0.60;56.00;;;;;;5012497;28;20206;-83
2022/03/10 05:31:13;;;;;;;33.72;19.63;;;-0.70;56.30;;;;;;5013356;28;20203;-83
2022/03/10 05:33:40;;;;;;;48.80;25.85;;;-0.80;57.50;;;;;;5011545;28;20198;-82
2022/03/10 05:36:07;;;;;;;33.45;20.30;;;-0.80;57.60;;;;;;5014563;28;20225;-82
2022/03/10 05:38:33;;;;;;;40.90;21.13;;;-0.90;57.50;;;;;;5012847;28;20222;-82
2022/03/10 05:41:00;;;;;;;34.00;19.58;;;-0.90;58.40;;;;;;5011301;28;20194;-82
2022/03/10 05:43:27;;;;;;;32.63;20.08;;;-1.00;57.90;;;;;;5012966;28;20265;-82
2022/03/10 05:45:54;;;;;;;36.97;20.00;;;-1.00;58.40;;;;;;5011254;28;20202;-83
2022/03/10 05:48:22;;;;;;;34.38;19.27;;;-0.90;57.70;;;;;;5011269;28;20305;-82
2022/03/10 05:50:49;;;;;;;30.20;18.63;;;-0.80;57.80;;;;;;5012558;28;20573;-83
2022/03/10 05:53:16;;;;;;;37.03;22.40;;;-0.70;58.00;;;;;;5012262;28;20217;-83
2022/03/10 05:55:42;;;;;;;36.05;21.85;;;-0.70;58.10;;;;;;5012680;28;20663;-82
2022/03/10 05:58:09;;;;;;;33.00;21.70;;;-0.70;58.10;;;;;;5016811;28;20218;-81
2022/03/10 06:00:36;;;;;;;37.03;21.35;;;-0.70;58.30;;;;;;5016750;28;20568;-82
2022/03/10 06:03:03;;;;;;;34.55;21.17;;;-0.70;58.60;;;;;;5017654;28;20685;-85
2022/03/10 06:05:31;;;;;;;43.08;24.23;;;-0.90;59.30;;;;;;5016748;28;20190;-82
2022/03/10 06:07:57;;;;;;;39.85;24.83;;;-0.90;59.90;;;;;;5016577;28;20205;-82
2022/03/10 06:10:24;;;;;;;40.17;23.40;;;-1.00;60.60;;;;;;5017235;28;20194;-82
2022/03/10 06:12:51;;;;;;;31.17;21.42;;;-0.90;61.10;;;;;;5017317;28;20205;-83
2022/03/10 06:15:18;;;;;;;33.20;20.52;;;-0.90;61.30;;;;;;5007192;28;20199;-83
2022/03/10 06:17:45;;;;;;;36.60;23.10;;;-0.80;61.40;;;;;;5015776;28;20214;-84
2022/03/10 06:20:12;;;;;;;39.72;24.85;;;-0.80;60.90;;;;;;5013765;28;20186;-84
2022/03/10 06:22:40;;;;;;;36.40;21.15;;;-0.70;60.20;;;;;;5015876;28;20218;-83
2022/03/10 06:25:07;;;;;;;44.63;22.13;;;-0.70;59.80;;;;;;5016509;28;20557;-83
2022/03/10 06:27:34;;;;;;;34.67;22.05;;;-0.50;59.70;;;;;;5015462;28;20190;-82
2022/03/10 06:30:01;;;;;;;32.72;22.40;;;-0.50;59.80;;;;;;5021311;28;20221;-85
2022/03/10 06:32:28;;;;;;;32.17;21.25;;;-0.50;60.30;;;;;;5018927;28;20194;-84
2022/03/10 06:34:59;;;;;;;29.52;20.52;;;-0.50;59.80;;;;;;5020952;28;20209;-85
2022/03/10 06:37:26;;;;;;;37.65;21.48;;;-0.40;59.80;;;;;;5022380;28;20206;-85
2022/03/10 06:39:54;;;;;;;35.50;22.67;;;-0.40;60.30;;;;;;5017981;28;20609;-84
2022/03/10 06:42:22;;;;;;;36.15;21.02;;;-0.40;60.60;;;;;;5016383;28;20550;-83
2022/03/10 06:44:49;;;;;;;33.65;22.50;;;-0.40;60.50;;;;;;5018842;28;20195;-81
2022/03/10 06:47:16;;;;;;;41.65;22.58;;;-0.30;59.80;;;;;;5017417;28;20191;-83
2022/03/10 06:49:44;;;;;;;34.58;20.48;;;-0.20;59.10;;;;;;5018184;28;20302;-82
2022/03/10 06:52:11;;;;;;;36.10;21.15;;;0.00;58.10;;;;;;5017286;28;20262;-84
2022/03/10 06:54:38;;;;;;;37.90;21.45;;;0.20;57.00;;;;;;5021150;28;20197;-86
2022/03/10 06:57:07;;;;;;;30.95;19.85;;;0.30;55.20;;;;;;5022137;28;20218;-82
2022/03/10 06:59:35;;;;;;;30.17;19.13;;;0.50;53.80;;;;;;5017300;28;20241;-84
2022/03/10 07:02:01;;;;;;;28.10;17.23;;;0.70;50.90;;;;;;5021101;28;20194;-85
2022/03/10 07:04:28;;;;;;;29.50;18.02;;;0.90;48.50;;;;;;5022212;28;20209;-85
2022/03/10 07:06:55;;;;;;;28.40;19.27;;;1.10;47.20;;;;;;5021095;28;20194;-85
2022/03/10 07:09:22;;;;;;;33.10;19.88;;;1.20;46.70;;;;;;5020774;28;20473;-85
2022/03/10 07:11:48;;;;;;;27.05;16.83;;;1.30;46.00;;;;;;5021089;28;20195;-85
2022/03/10 07:14:17;;;;;;;26.38;17.13;;;1.50;45.40;;;;;;5018145;28;20198;-84
2022/03/10 07:16:44;;;;;;;31.42;17.20;;;1.60;44.50;;;;;;5015492;28;20225;-84
2022/03/10 07:19:12;;;;;;;26.60;17.13;;;1.70;44.10;;;;;;5016050;28;20259;-85
2022/03/10 07:21:40;;;;;;;27.30;16.87;;;1.80;43.60;;;;;;5015595;28;20662;-86
2022/03/10 07:24:07;;;;;;;34.67;16.77;;;2.00;42.30;;;;;;5015039;28;20556;-84
2022/03/10 07:26:34;;;;;;;28.42;17.50;;;2.10;41.40;;;;;;5014635;28;20875;-84
2022/03/10 07:29:02;;;;;;;30.57;17.20;;;2.20;41.20;;;;;;5014268;28;20226;-85
2022/03/10 07:31:32;;;;;;;30.40;18.55;;;2.30;39.50;;;;;;5010226;28;20463;-84
2022/03/10 07:33:58;;;;;;;28.97;17.50;;;2.40;38.30;;;;;;5014545;28;20201;-85
2022/03/10 07:36:25;;;;;;;26.37;16.73;;;2.50;38.40;;;;;;5014436;28;20461;-84
2022/03/10 07:38:53;;;;;;;30.60;17.90;;;2.60;37.20;;;;;;5014131;28;20485;-84
2022/03/10 07:41:19;;;;;;;27.87;16.77;;;2.80;36.10;;;;;;5014104;28;20457;-85
2022/03/10 07:43:46;;;;;;;27.63;18.10;;;3.00;32.90;;;;;;5014386;28;20453;-85
2022/03/10 07:46:13;;;;;;;30.63;18.10;;;3.10;32.80;;;;;;5014809;28;20464;-85
2022/03/10 07:48:41;;;;;;;27.33;15.97;;;3.20;31.70;;;;;;5014725;28;20996;-85
2022/03/10 07:51:08;;;;;;;28.63;16.93;;;3.40;31.00;;;;;;5014464;28;20453;-85
2022/03/10 07:53:35;;;;;;;30.03;17.70;;;3.50;31.50;;;;;;5012775;28;20822;-83
2022/03/10 07:56:02;;;;;;;38.13;17.40;;;3.50;30.40;;;;;;5014217;28;21000;-85
2022/03/10 07:58:29;;;;;;;32.00;17.80;;;3.60;30.50;;;;;;5038542;22;20485;-77
2022/03/10 08:00:57;;;;;;;29.17;17.10;;;3.70;30.90;;;;;;4976207;28;20485;-81
2022/03/10 08:03:25;;;;;;;28.13;17.57;;;3.70;30.50;;;;;;4996844;28;20439;-82
2022/03/10 08:05:53;;;;;;;36.40;17.23;;;3.90;30.70;;;;;;4996004;28;20511;-82
2022/03/10 08:08:20;;;;;;;34.17;15.07;;;4.00;30.10;;;;;;4986342;28;20449;-81
2022/03/10 08:10:48;;;;;;;28.00;15.87;;;4.10;29.30;;;;;;4978344;28;20474;-81
2022/03/10 08:13:15;;;;;;;26.63;17.80;;;4.30;28.80;;;;;;4979026;28;20463;-81
2022/03/10 08:15:43;;;;;;;27.87;15.20;;;4.30;27.90;;;;;;4978780;28;20455;-81
2022/03/10 08:18:10;;;;;;;31.43;17.87;;;4.50;26.60;;;;;;4978927;28;20537;-79
2022/03/10 08:20:39;;;;;;;27.88;16.02;;;4.60;27.30;;;;;;4990573;28;20469;-81
2022/03/10 08:23:07;;;;;;;31.90;18.27;;;4.70;27.70;;;;;;4993763;28;20200;-83
2022/03/10 08:25:34;;;;;;;29.03;14.60;;;4.80;26.70;;;;;;4995721;28;20438;-81
2022/03/10 08:28:01;;;;;;;24.13;14.90;;;5.00;24.40;;;;;;4984297;28;20449;-82
2022/03/10 08:30:28;;;;;;;22.50;15.20;;;5.10;24.50;;;;;;4978053;28;20512;-82
2022/03/10 08:32:55;;;;;;;27.03;16.80;;;5.30;24.60;;;;;;4978527;28;20459;-81
2022/03/10 08:35:21;;;;;;;26.90;17.40;;;5.50;24.80;;;;;;4978857;28;20824;-81
2022/03/10 08:37:48;;;;;;;27.00;16.20;;;5.60;24.00;;;;;;4978297;28;20844;-82
2022/03/10 08:40:19;;;;;;;22.77;14.93;;;5.70;22.60;;;;;;4977568;28;20482;-81
2022/03/10 08:42:46;;;;;;;28.03;16.80;;;5.90;21.70;;;;;;4977578;28;20467;-82
2022/03/10 08:45:14;;;;;;;28.30;15.10;;;6.00;22.00;;;;;;4978245;28;20455;-82
2022/03/10 08:47:41;;;;;;;23.70;15.13;;;6.20;21.60;;;;;;4978389;28;20459;-82
2022/03/10 08:50:09;;;;;;;25.57;15.67;;;6.50;21.00;;;;;;4976907;28;21003;-82
2022/03/10 08:52:36;;;;;;;25.30;14.50;;;6.70;20.30;;;;;;4978292;28;20467;-83
2022/03/10 08:55:05;;;;;;;31.63;16.20;;;7.00;19.30;;;;;;4978161;28;20470;-82
2022/03/10 08:57:34;;;;;;;21.87;13.93;;;7.30;18.60;;;;;;4978315;28;20489;-81
2022/03/10 09:00:00;;;;;;;23.50;15.07;;;7.70;16.50;;;;;;4977377;28;20585;-82
2022/03/10 09:02:28;;;;;;;24.13;15.70;;;8.10;14.80;;;;;;4977930;28;20465;-82
2022/03/10 09:04:58;;;;;;;23.13;14.90;;;8.50;13.00;;;;;;4977903;28;20959;-82
2022/03/10 09:07:24;;;;;;;24.90;15.77;;;8.90;8.10;;;;;;4978103;28;20478;-82
2022/03/10 09:09:52;;;;;;;23.30;16.50;;;9.30;8.80;;;;;;4977385;28;20545;-82
2022/03/10 09:12:19;;;;;;;29.93;16.93;;;9.50;6.30;;;;;;4978048;28;20459;-82
2022/03/10 09:14:47;;;;;;;26.10;17.50;;;9.80;6.80;;;;;;4977909;28;20455;-82
2022/03/10 09:17:14;;;;;;;21.43;15.03;;;10.10;5.10;;;;;;4978247;28;20487;-82
2022/03/10 09:19:41;;;;;;;29.07;17.50;;;10.30;3.70;;;;;;4976991;28;20991;-82
2022/03/10 09:22:07;;;;;;;26.80;15.47;;;10.60;4.00;;;;;;4978210;28;20455;-82
2022/03/10 09:24:34;;;;;;;25.50;16.20;;;10.60;1.80;;;;;;4977626;28;20481;-82
2022/03/10 09:27:01;;;;;;;24.10;16.13;;;10.80;2.10;;;;;;4978372;28;20451;-82
2022/03/10 09:29:28;;;;;;;28.10;16.87;;;10.90;1.00;;;;;;4978385;28;20486;-83
2022/03/10 09:31:56;;;;;;;21.87;16.83;;;11.10;1.00;;;;;;4977867;28;20463;-82
2022/03/10 09:34:23;;;;;;;25.87;16.87;;;11.20;1.00;;;;;;4978273;28;20482;-82
2022/03/10 09:36:50;;;;;;;30.87;17.50;;;11.50;1.00;;;;;;4977749;28;20455;-82
2022/03/10 09:39:18;;;;;;;24.03;17.67;;;11.80;1.00;;;;;;4977519;28;20486;-82
2022/03/10 09:41:45;;;;;;;29.53;19.73;;;12.00;1.00;;;;;;4977242;28;20451;-80
2022/03/10 09:44:14;;;;;;;24.87;17.23;;;12.10;1.00;;;;;;4976137;28;20462;-80
2022/03/10 09:46:41;;;;;;;27.27;18.20;;;12.30;1.00;;;;;;4975862;28;20486;-80
2022/03/10 09:49:10;;;;;;;24.70;17.33;;;12.70;1.00;;;;;;4975820;28;20478;-79
2022/03/10 09:51:36;;;;;;;27.97;18.13;;;12.90;1.00;;;;;;4976492;28;20519;-79
2022/03/10 09:54:03;;;;;;;25.63;18.63;;;13.10;1.00;;;;;;4976532;28;20467;-80
2022/03/10 09:56:31;;;;;;;24.90;18.40;;;13.40;1.00;;;;;;4976633;28;20460;-79
2022/03/10 09:58:57;;;;;;;28.83;18.60;;;13.80;1.00;;;;;;4975432;28;20516;-80
2022/03/10 10:01:24;;;;;;;49.03;20.90;;;13.60;1.00;;;;;;4976870;28;20464;-80
2022/03/10 10:03:51;;;;;;;24.70;17.90;;;13.60;1.00;;;;;;4976214;28;20487;-79
2022/03/10 10:06:19;;;;;;;40.20;19.33;;;14.00;1.00;;;;;;4976837;28;20458;-80
2022/03/10 10:08:54;;;;;;;28.97;19.40;;;14.40;1.00;;;;;;4975836;28;21010;-80
2022/03/10 10:11:31;;;;;;;25.00;18.77;;;14.70;1.00;;;;;;4976610;28;20838;-80
2022/03/10 10:13:57;;;;;;;31.10;19.70;;;14.60;1.00;;;;;;4976721;28;20942;-79
2022/03/10 10:16:24;;;;;;;26.03;18.63;;;14.90;1.00;;;;;;4976590;28;20466;-80
2022/03/10 10:18:56;;;;;;;31.03;18.83;;;14.80;1.00;;;;;;4976654;28;20497;-80
2022/03/10 10:21:25;;;;;;;28.13;20.00;;;14.80;1.00;;;;;;4977196;28;20459;-81
2022/03/10 10:23:54;;;;;;;30.27;19.97;;;15.00;1.00;;;;;;4977316;28;20457;-79
2022/03/10 10:26:26;;;;;;;33.77;19.37;;;15.30;1.00;;;;;;4976951;28;20948;-81
2022/03/10 10:28:54;;;;;;;28.97;20.10;;;15.40;1.00;;;;;;4976497;28;20481;-80
2022/03/10 10:31:22;;;;;;;26.57;19.67;;;15.60;1.00;;;;;;4977515;28;20457;-80
2022/03/10 10:34:00;;;;;;;28.73;18.43;;;16.10;1.00;;;;;;4976240;28;21009;-80
2022/03/10 10:36:31;;;;;;;33.57;22.70;;;16.20;1.00;;;;;;4977327;28;20466;-80
2022/03/10 10:39:07;;;;;;;27.93;20.67;;;15.90;1.00;;;;;;4976488;28;20488;-80
2022/03/10 10:41:33;;;;;;;27.00;18.80;;;15.90;1.00;;;;;;4977282;28;20467;-80
2022/03/10 10:44:02;;;;;;;35.87;20.90;;;15.80;1.00;;;;;;4979856;28;20463;-80
2022/03/10 10:46:31;;;;;;;26.37;19.70;;;16.10;1.00;;;;;;4981079;28;20459;-80
2022/03/10 10:49:00;;;;;;;26.90;19.20;;;16.30;1.00;;;;;;4980749;28;20869;-80
2022/03/10 10:51:37;;;;;;;30.73;21.88;;;16.50;1.00;;;;;;4979009;28;20831;-79
2022/03/10 10:54:06;;;;;;;27.83;20.23;;;16.70;1.00;;;;;;4977991;28;20203;-80
2022/03/10 10:56:34;;;;;;;29.50;19.43;;;17.00;1.00;;;;;;4976644;28;20468;-80
2022/03/10 10:59:02;;;;;;;29.73;20.33;;;16.90;1.00;;;;;;4977023;28;20484;-80
2022/03/10 11:01:34;;;;;;;32.00;18.90;;;17.20;1.00;;;;;;4977564;28;20470;-80
2022/03/10 11:04:03;;;;;;;30.97;20.17;;;17.60;1.00;;;;;;4978056;28;21139;-80
2022/03/10 11:06:30;;;;;;;25.43;20.17;;;17.70;1.00;;;;;;4978030;28;20463;-80
2022/03/10 11:08:58;;;;;;;27.47;19.87;;;17.80;1.00;;;;;;4977414;28;20471;-80
2022/03/10 11:11:25;;;;;;;31.33;20.70;;;17.40;1.00;;;;;;4978369;28;20841;-80
2022/03/10 11:13:52;;;;;;;25.63;19.70;;;17.60;1.00;;;;;;4977594;28;20458;-80
2022/03/10 11:16:20;;;;;;;24.27;18.23;;;17.80;1.00;;;;;;4977534;28;20462;-80
2022/03/10 11:18:53;;;;;;;27.20;18.03;;;17.90;1.00;;;;;;4977475;28;20510;-80
2022/03/10 11:21:59;;;;;;;25.37;18.27;;;18.30;1.00;;;;;;4977750;28;20464;-80
2022/03/10 11:24:58;;;;;;;29.67;18.57;;;18.40;1.00;;;;;;4974064;28;20473;-81
2022/03/10 11:27:30;;;;;;;26.23;21.07;;;18.30;1.00;;;;;;4977173;28;20466;-80
2022/03/10 11:30:01;;;;;;;25.47;18.30;;;18.60;1.00;;;;;;4977827;28;20479;-80
2022/03/10 11:32:29;;;;;;;26.07;18.67;;;18.60;1.00;;;;;;4977689;28;20466;-80
2022/03/10 11:34:58;;;;;;;27.97;18.57;;;18.50;1.00;;;;;;4977924;28;20461;-80
2022/03/10 11:37:50;;;;;;;27.83;20.00;;;18.40;1.00;;;;;;4978218;28;20467;-81
2022/03/10 11:40:20;;;;;;;25.80;18.40;;;18.90;1.00;;;;;;4974727;28;20480;-80
2022/03/10 11:42:59;;;;;;;27.57;18.80;;;19.10;1.00;;;;;;4978262;28;20485;-80
2022/03/10 11:45:30;;;;;;;26.47;18.50;;;19.60;1.00;;;;;;4977322;28;20458;-80
2022/03/10 11:48:34;;;;;;;23.80;17.60;;;19.40;1.00;;;;;;4977703;28;20452;-80
2022/03/10 11:51:19;;;;;;;28.27;18.70;;;19.10;1.00;;;;;;4978869;28;20900;-80
2022/03/10 11:54:05;;;;;;;23.30;18.33;;;19.20;1.00;;;;;;4977549;28;20460;-80
2022/03/10 11:56:35;;;;;;;23.50;18.10;;;19.20;1.00;;;;;;4978273;28;20465;-80
2022/03/10 11:59:18;;;;;;;27.60;18.57;;;19.50;1.00;;;;;;4978780;28;21035;-80
2022/03/10 12:01:45;;;;;;;28.23;18.67;;;19.20;1.00;;;;;;4979708;28;20513;-80
2022/03/10 12:04:15;;;;;;;23.83;18.47;;;19.40;1.00;;;;;;4979390;28;20457;-80
2022/03/10 12:06:48;;;;;;;25.13;18.47;;;19.70;1.00;;;;;;4978351;28;20547;-80
2022/03/10 12:09:27;;;;;;;20.13;15.83;;;19.90;1.00;;;;;;4977255;28;20476;-80
2022/03/10 12:11:55;;;;;;;24.60;17.87;;;19.90;1.00;;;;;;4978559;28;20454;-80
2022/03/10 12:14:26;;;;;;;24.67;17.27;;;20.10;1.00;;;;;;4978351;28;20463;-80
2022/03/10 12:16:53;;;;;;;22.83;16.40;;;20.20;1.00;;;;;;4978680;28;20459;-79
2022/03/10 12:19:19;;;;;;;27.37;19.10;;;20.20;1.00;;;;;;4978154;28;20485;-81
2022/03/10 12:21:46;;;;;;;26.20;19.60;;;20.10;1.00;;;;;;4978949;28;20468;-80
2022/03/10 12:24:14;;;;;;;22.03;18.20;;;20.10;1.00;;;;;;4978582;28;20465;-81
2022/03/10 12:26:43;;;;;;;33.10;19.07;;;20.40;1.00;;;;;;4978458;28;20519;-81
2022/03/10 12:29:13;;;;;;;23.17;16.30;;;20.40;1.00;;;;;;4977604;28;20509;-80
2022/03/10 12:31:42;;;;;;;24.47;19.00;;;19.80;1.00;;;;;;4978530;28;20459;-80
2022/03/10 12:34:12;;;;;;;29.30;18.47;;;20.30;1.00;;;;;;4977395;28;20468;-79
2022/03/10 12:36:42;;;;;;;24.03;17.33;;;20.20;1.00;;;;;;4977887;28;20465;-79
2022/03/10 12:39:10;;;;;;;24.70;18.80;;;20.10;1.00;;;;;;4977839;28;20881;-81
2022/03/10 12:41:40;;;;;;;21.60;15.93;;;20.20;1.00;;;;;;4977119;28;20541;-80
2022/03/10 12:44:08;;;;;;;22.50;16.90;;;20.50;1.00;;;;;;4978025;28;20817;-81
2022/03/10 12:46:38;;;;;;;22.90;16.33;;;20.00;1.00;;;;;;4975220;28;20459;-80